createdAt,value
2023-04-12T00:00:10.372Z,1.30
2023-04-12T00:02:37.950Z,1.42
2023-04-12T00:05:04.562Z,1.20
2023-04-12T00:07:31.071Z,1.38
2023-04-12T00:09:57.510Z,1.50
2023-04-12T00:12:25.000Z,1.60
2023-04-12T00:14:51.851Z,1.20
2023-04-12T00:17:19.446Z,1.30
2023-04-12T00:19:47.572Z,1.50
2023-04-12T00:22:14.974Z,1.45
2023-04-12T00:24:41.765Z,1.10
2023-04-12T00:27:08.363Z,1.20
2023-04-12T00:29:36.240Z,1.38
2023-04-12T00:32:03.857Z,1.20
2023-04-12T00:36:56.700Z,1.33
2023-04-12T00:39:23.451Z,1.17
2023-04-12T00:41:49.905Z,0.95
2023-04-12T00:44:17.993Z,1.00
2023-04-12T00:46:45.427Z,1.00
2023-04-12T00:51:39.466Z,1.00
2023-04-12T00:54:06.332Z,1.00
2023-04-12T00:56:33.704Z,1.00
2023-04-12T00:59:00.699Z,1.10
2023-04-12T01:01:28.169Z,0.95
2023-04-12T01:04:01.031Z,1.10
2023-04-12T01:06:36.435Z,1.15
2023-04-12T01:09:18.446Z,1.08
2023-04-12T01:11:47.092Z,1.20
2023-04-12T01:14:13.538Z,1.20
2023-04-12T01:16:47.721Z,1.40
2023-04-12T01:19:36.376Z,1.20
2023-04-12T01:22:16.346Z,1.30
2023-04-12T01:27:13.499Z,1.20
2023-04-12T01:29:40.521Z,1.20
2023-04-12T01:32:09.045Z,1.30
2023-04-12T01:34:35.928Z,1.42
2023-04-12T01:37:03.069Z,1.10
2023-04-12T01:39:30.905Z,1.20
2023-04-12T01:41:57.474Z,1.33
2023-04-12T01:44:24.066Z,1.17
2023-04-12T01:46:52.962Z,1.00
2023-04-12T01:51:49.373Z,1.30
2023-04-12T01:54:23.001Z,1.42
2023-04-12T01:56:53.415Z,1.13
2023-04-12T01:59:21.981Z,1.10
2023-04-12T02:01:48.607Z,1.00
2023-04-12T02:04:16.066Z,1.30
2023-04-12T02:06:43.448Z,1.10
2023-04-12T02:09:10.320Z,1.05
2023-04-12T02:11:36.841Z,1.08
2023-04-12T02:14:03.334Z,1.02
2023-04-12T02:16:29.943Z,1.33
2023-04-12T02:18:57.399Z,1.10
2023-04-12T02:23:50.409Z,1.10
2023-04-12T02:26:16.926Z,1.40
2023-04-12T02:28:44.292Z,0.90
2023-04-12T02:31:13.315Z,1.02
2023-04-12T02:33:41.213Z,1.10
2023-04-12T02:36:10.271Z,1.30
2023-04-12T02:38:37.015Z,1.00
2023-04-12T02:41:06.086Z,1.17
2023-04-12T02:43:34.008Z,1.27
2023-04-12T02:46:04.246Z,1.00
2023-04-12T02:48:38.032Z,1.20
2023-04-12T02:51:05.043Z,1.13
2023-04-12T02:53:33.059Z,1.30
2023-04-12T02:56:19.175Z,1.00
2023-04-12T02:58:49.358Z,1.13
2023-04-12T03:01:24.036Z,1.10
2023-04-12T03:04:16.323Z,1.20
2023-04-12T03:06:54.865Z,1.25
2023-04-12T03:09:28.732Z,1.17
2023-04-12T03:11:55.476Z,1.00
2023-04-12T03:14:22.537Z,1.15
2023-04-12T03:16:51.275Z,1.20
2023-04-12T03:19:18.919Z,1.00
2023-04-12T03:21:51.382Z,1.25
2023-04-12T03:24:18.034Z,1.00
2023-04-12T03:26:44.796Z,1.17
2023-04-12T03:29:16.341Z,1.17
2023-04-12T03:31:44.239Z,1.10
2023-04-12T03:34:10.651Z,1.20
2023-04-12T03:36:41.617Z,0.98
2023-04-12T03:39:19.098Z,1.00
2023-04-12T03:41:49.736Z,1.00
2023-04-12T03:44:16.390Z,0.90
2023-04-12T03:46:43.019Z,1.10
2023-04-12T03:49:11.162Z,0.93
2023-04-12T03:51:42.772Z,1.02
2023-04-12T03:54:10.638Z,0.90
2023-04-12T03:57:00.165Z,1.02
2023-04-12T03:59:39.664Z,0.95
2023-04-12T04:04:38.085Z,1.10
2023-04-12T04:07:08.380Z,1.10
2023-04-12T04:09:41.140Z,1.15
2023-04-12T04:12:09.082Z,0.90
2023-04-12T04:14:38.440Z,1.00
2023-04-12T04:17:07.735Z,0.90
2023-04-12T04:19:34.681Z,0.88
2023-04-12T04:22:04.721Z,1.00
2023-04-12T04:24:31.249Z,0.90
2023-04-12T04:27:01.001Z,0.90
2023-04-12T04:29:29.139Z,0.98
2023-04-12T04:31:57.970Z,0.85
2023-04-12T04:34:25.627Z,0.95
2023-04-12T04:36:58.666Z,0.90
2023-04-12T04:39:27.433Z,0.80
2023-04-12T04:41:55.650Z,0.80
2023-04-12T04:44:35.814Z,0.90
2023-04-12T04:47:05.044Z,1.00
2023-04-12T04:49:31.728Z,0.80
2023-04-12T04:52:04.501Z,0.90
2023-04-12T04:54:33.048Z,0.70
2023-04-12T04:57:01.676Z,0.85
2023-04-12T04:59:28.159Z,0.85
2023-04-12T05:02:07.615Z,0.77
2023-04-12T05:04:34.761Z,0.93
2023-04-12T05:07:01.422Z,0.93
2023-04-12T05:09:27.911Z,0.80
2023-04-12T05:11:56.339Z,0.77
2023-04-12T05:14:23.990Z,0.95
2023-04-12T05:16:50.457Z,1.00
2023-04-12T05:19:17.736Z,1.10
2023-04-12T05:21:44.888Z,0.80
2023-04-12T05:24:11.991Z,0.82
2023-04-12T05:26:39.995Z,0.90
2023-04-12T05:29:12.244Z,0.90
2023-04-12T05:31:38.783Z,0.80
2023-04-12T05:34:09.419Z,0.90
2023-04-12T05:36:41.705Z,0.85
2023-04-12T05:39:08.547Z,0.90
2023-04-12T05:41:35.738Z,1.10
2023-04-12T05:44:03.638Z,0.63
2023-04-12T05:46:30.718Z,0.93
2023-04-12T05:48:57.949Z,0.85
2023-04-12T05:51:37.766Z,0.85
2023-04-12T05:54:07.344Z,0.80
2023-04-12T05:56:35.872Z,0.90
2023-04-12T06:01:32.506Z,0.80
2023-04-12T06:04:02.392Z,0.80
2023-04-12T06:06:30.409Z,0.90
2023-04-12T06:09:00.696Z,1.00
2023-04-12T06:11:28.442Z,0.82
2023-04-12T06:13:55.532Z,0.80
2023-04-12T06:16:22.910Z,1.00
2023-04-12T06:18:49.517Z,0.88
2023-04-12T06:21:16.281Z,0.90
2023-04-12T06:23:42.717Z,0.80
2023-04-12T06:26:09.499Z,0.90
2023-04-12T06:28:36.144Z,0.80
2023-04-12T06:31:02.695Z,0.82
2023-04-12T06:33:33.576Z,1.00
2023-04-12T06:36:01.103Z,0.82
2023-04-12T06:38:27.592Z,0.90
2023-04-12T06:40:54.049Z,1.10
2023-04-12T06:43:22.380Z,1.50
2023-04-12T06:45:51.834Z,1.40
2023-04-12T06:48:21.476Z,1.15
2023-04-12T06:50:48.142Z,1.10
2023-04-12T06:53:14.789Z,1.17
2023-04-12T06:55:41.339Z,1.05
2023-04-12T06:58:07.743Z,1.10
2023-04-12T07:00:34.682Z,1.10
2023-04-12T07:03:01.564Z,0.95
2023-04-12T07:05:29.406Z,1.30
2023-04-12T07:07:56.059Z,1.00
2023-04-12T07:10:22.710Z,1.00
2023-04-12T07:12:49.647Z,0.90
2023-04-12T07:15:16.049Z,1.00
2023-04-12T07:17:42.489Z,0.80
2023-04-12T07:20:09.161Z,0.85
2023-04-12T07:22:35.575Z,0.60
2023-04-12T07:25:02.135Z,0.90
2023-04-12T07:27:28.532Z,1.23
2023-04-12T07:29:55.001Z,1.20
2023-04-12T07:32:21.526Z,0.90
2023-04-12T07:34:48.003Z,1.05
2023-04-12T07:37:14.574Z,0.90
2023-04-12T07:39:41.340Z,0.70
2023-04-12T07:42:07.780Z,1.10
2023-04-12T07:44:36.433Z,0.90
2023-04-12T07:47:04.663Z,1.05
2023-04-12T07:49:31.227Z,0.80
2023-04-12T07:51:57.717Z,0.68
2023-04-12T07:54:26.767Z,0.90
2023-04-12T07:57:00.151Z,0.80
2023-04-12T07:59:26.669Z,0.80
2023-04-12T08:01:53.133Z,0.70
2023-04-12T08:04:19.913Z,1.00
2023-04-12T08:06:46.401Z,0.70
2023-04-12T08:09:13.229Z,1.00
2023-04-12T08:11:39.816Z,0.90
2023-04-12T08:14:06.279Z,0.80
2023-04-12T08:16:33.147Z,0.90
2023-04-12T08:18:59.550Z,0.70
2023-04-12T08:21:27.707Z,0.90
2023-04-12T08:23:54.221Z,0.80
2023-04-12T08:26:21.255Z,0.70
2023-04-12T08:28:48.625Z,0.90
2023-04-12T08:31:15.846Z,1.00
2023-04-12T08:36:08.955Z,0.80
2023-04-12T08:38:44.755Z,1.00
2023-04-12T08:41:12.297Z,1.20
2023-04-12T08:43:42.624Z,0.90
2023-04-12T08:46:09.209Z,0.95
2023-04-12T08:48:36.422Z,1.05
2023-04-12T08:51:03.192Z,0.90
2023-04-12T08:53:29.663Z,0.80
2023-04-12T08:55:56.049Z,0.85
2023-04-12T08:58:22.901Z,0.95
2023-04-12T09:00:49.332Z,1.00
2023-04-12T09:03:16.117Z,0.90
2023-04-12T09:05:42.834Z,1.00
2023-04-12T09:08:09.880Z,1.00
2023-04-12T09:10:37.881Z,1.00
2023-04-12T09:13:05.015Z,1.23
2023-04-12T09:15:31.673Z,0.90
2023-04-12T09:18:04.166Z,1.00
2023-04-12T09:20:30.843Z,1.00
2023-04-12T09:22:57.708Z,1.00
2023-04-12T09:25:40.593Z,1.00
2023-04-12T09:28:23.889Z,1.00
2023-04-12T09:30:52.004Z,1.20
2023-04-12T09:33:23.300Z,0.95
2023-04-12T09:35:49.933Z,0.93
2023-04-12T09:38:16.585Z,1.10
2023-04-12T09:40:42.997Z,1.02
2023-04-12T09:43:09.691Z,1.10
2023-04-12T09:45:38.764Z,1.02
2023-04-12T09:48:07.642Z,1.30
2023-04-12T09:50:34.698Z,1.10
2023-04-12T09:53:02.331Z,1.23
2023-04-12T09:55:30.027Z,1.23
2023-04-12T09:57:56.555Z,1.10
2023-04-12T10:00:25.522Z,1.17
2023-04-12T10:02:53.495Z,1.10
2023-04-12T10:05:21.917Z,1.00
2023-04-12T10:07:49.065Z,1.17
2023-04-12T10:10:17.467Z,1.25
2023-04-12T10:12:45.550Z,1.42
2023-04-12T10:15:17.849Z,1.20
2023-04-12T10:17:54.096Z,1.27
2023-04-12T10:20:21.973Z,1.20
2023-04-12T10:22:49.451Z,1.60
2023-04-12T10:27:43.085Z,1.40
2023-04-12T10:30:22.794Z,1.30
2023-04-12T10:33:09.671Z,1.67
2023-04-12T10:35:48.121Z,1.70
2023-04-12T10:38:15.661Z,1.40
2023-04-12T10:41:00.713Z,1.85
2023-04-12T10:43:30.377Z,1.80
2023-04-12T10:45:57.574Z,1.55
2023-04-12T10:48:32.939Z,1.60
2023-04-12T10:51:33.192Z,1.38
2023-04-12T10:54:08.576Z,1.58
2023-04-12T10:56:36.209Z,1.42
2023-04-12T10:59:12.183Z,1.75
2023-04-12T11:01:42.100Z,2.40
2023-04-12T11:04:13.822Z,1.80
2023-04-12T11:06:55.485Z,2.15
2023-04-12T11:09:45.506Z,2.00
2023-04-12T11:12:21.585Z,2.10
2023-04-12T11:14:49.113Z,1.77
2023-04-12T11:17:16.102Z,1.70
2023-04-12T11:19:43.523Z,1.42
2023-04-12T11:24:40.252Z,1.50
2023-04-12T11:27:06.739Z,1.50
2023-04-12T11:29:33.214Z,1.77
2023-04-12T11:32:02.283Z,1.48
2023-04-12T11:34:32.510Z,1.67
2023-04-12T11:36:59.126Z,1.70
2023-04-12T11:39:26.400Z,1.55
2023-04-12T11:41:53.250Z,1.50
2023-04-12T11:44:21.811Z,1.60
2023-04-12T11:46:48.677Z,1.70
2023-04-12T11:49:18.896Z,1.20
2023-04-12T11:51:48.231Z,1.40
2023-04-12T11:54:16.133Z,1.63
2023-04-12T11:56:42.611Z,1.48
2023-04-12T11:59:09.008Z,1.23
2023-04-12T12:01:36.014Z,1.30
2023-04-12T12:04:03.184Z,1.52
2023-04-12T12:06:31.491Z,1.23
2023-04-12T12:08:58.291Z,1.60
2023-04-12T12:11:24.871Z,1.48
2023-04-12T12:13:52.729Z,1.00
2023-04-12T12:16:24.135Z,1.20
2023-04-12T12:18:52.837Z,1.02
2023-04-12T12:21:19.999Z,1.20
2023-04-12T12:23:46.770Z,1.40
2023-04-12T12:26:23.779Z,1.27
2023-04-12T12:28:51.763Z,1.42
2023-04-12T12:31:22.587Z,1.20
2023-04-12T12:33:49.770Z,1.45
2023-04-12T12:36:22.285Z,1.20
2023-04-12T12:38:53.214Z,1.10
2023-04-12T12:41:21.055Z,1.10
2023-04-12T12:43:48.502Z,1.20
2023-04-12T12:46:15.464Z,1.23
2023-04-12T12:48:42.214Z,1.25
2023-04-12T12:51:09.788Z,1.20
2023-04-12T12:53:36.729Z,1.23
2023-04-12T12:56:03.353Z,1.33
2023-04-12T12:58:30.207Z,1.20
2023-04-12T13:00:56.661Z,1.10
2023-04-12T13:03:23.215Z,1.30
2023-04-12T13:05:50.545Z,1.35
2023-04-12T13:08:17.264Z,1.30
2023-04-12T13:10:44.148Z,1.30
2023-04-12T13:13:10.618Z,1.10
2023-04-12T13:15:37.141Z,1.20
2023-04-12T13:18:03.783Z,1.13
2023-04-12T13:20:30.351Z,1.35
2023-04-12T13:22:56.988Z,1.10
2023-04-12T13:25:23.418Z,1.25
2023-04-12T13:27:50.607Z,0.95
2023-04-12T13:30:20.039Z,1.20
2023-04-12T13:32:46.722Z,1.10
2023-04-12T13:35:13.289Z,1.10
2023-04-12T13:37:39.843Z,0.98
2023-04-12T13:40:06.906Z,1.20
2023-04-12T13:42:33.365Z,1.10
2023-04-12T13:44:59.883Z,0.90
2023-04-12T13:47:27.076Z,1.10
2023-04-12T13:49:54.455Z,1.08
2023-04-12T13:54:47.544Z,0.90
2023-04-12T13:57:14.044Z,0.93
2023-04-12T13:59:40.655Z,0.90
2023-04-12T14:02:07.696Z,0.90
2023-04-12T14:04:34.293Z,0.82
2023-04-12T14:07:01.186Z,0.77
2023-04-12T14:09:28.826Z,0.70
2023-04-12T14:11:56.425Z,0.60
2023-04-12T14:14:23.436Z,1.00
2023-04-12T14:16:51.828Z,1.05
2023-04-12T14:19:18.326Z,1.05
2023-04-12T14:21:45.121Z,1.00
2023-04-12T14:24:11.589Z,0.95
2023-04-12T14:26:39.854Z,1.10
2023-04-12T14:29:06.682Z,0.80
2023-04-12T14:31:34.229Z,1.05
2023-04-12T14:34:01.098Z,0.90
2023-04-12T14:36:27.758Z,1.00
2023-04-12T14:38:54.584Z,0.90
2023-04-12T14:41:21.168Z,0.93
2023-04-12T14:43:47.704Z,0.80
2023-04-12T14:46:14.118Z,0.90
2023-04-12T14:48:41.368Z,1.20
2023-04-12T14:51:07.776Z,1.00
2023-04-12T14:53:34.436Z,1.00
2023-04-12T14:56:02.510Z,0.93
2023-04-12T14:58:30.048Z,0.70
2023-04-12T15:00:57.017Z,0.70
2023-04-12T15:03:23.681Z,0.90
2023-04-12T15:05:50.256Z,0.80
2023-04-12T15:08:17.037Z,1.00
2023-04-12T15:10:44.614Z,1.05
2023-04-12T15:13:11.289Z,0.80
2023-04-12T15:15:37.716Z,0.80
2023-04-12T15:18:04.326Z,0.80
2023-04-12T15:20:30.749Z,0.80
2023-04-12T15:22:57.339Z,0.80
2023-04-12T15:25:23.956Z,0.82
2023-04-12T15:27:50.755Z,0.80
2023-04-12T15:30:17.897Z,0.77
2023-04-12T15:32:44.414Z,0.85
2023-04-12T15:35:25.386Z,0.82
2023-04-12T15:37:54.934Z,0.80
2023-04-12T15:40:22.718Z,0.80
2023-04-12T15:42:49.560Z,0.90
2023-04-12T15:45:16.174Z,0.57
2023-04-12T15:47:42.645Z,0.80
2023-04-12T15:50:09.692Z,0.60
2023-04-12T15:52:36.379Z,0.70
2023-04-12T15:55:05.230Z,0.60
2023-04-12T15:57:32.368Z,0.70
2023-04-12T15:59:59.856Z,0.90
2023-04-12T16:02:26.662Z,0.80
2023-04-12T16:04:55.901Z,0.82
2023-04-12T16:07:22.514Z,0.65
2023-04-12T16:09:49.069Z,0.70
2023-04-12T16:12:15.623Z,0.90
2023-04-12T16:14:42.177Z,0.85
2023-04-12T16:17:08.651Z,0.73
2023-04-12T16:19:35.113Z,0.70
2023-04-12T16:22:01.816Z,0.80
2023-04-12T16:24:28.620Z,0.80
2023-04-12T16:26:55.167Z,0.80
2023-04-12T16:29:22.254Z,0.80
2023-04-12T16:31:48.794Z,0.80
2023-04-12T16:34:15.763Z,0.82
2023-04-12T16:36:43.087Z,1.10
2023-04-12T16:39:11.384Z,0.80
2023-04-12T16:41:37.995Z,0.90
2023-04-12T16:44:04.481Z,0.70
2023-04-12T16:46:31.440Z,0.70
2023-04-12T16:48:59.307Z,0.73
2023-04-12T16:51:27.019Z,0.80
2023-04-12T16:53:53.550Z,0.70
2023-04-12T16:56:20.414Z,0.73
2023-04-12T16:58:48.860Z,0.80
2023-04-12T17:01:17.121Z,0.70
2023-04-12T17:03:44.264Z,0.60
2023-04-12T17:06:10.774Z,0.70
2023-04-12T17:08:37.363Z,0.80
2023-04-12T17:11:03.858Z,0.70
2023-04-12T17:13:30.913Z,0.82
2023-04-12T17:15:57.482Z,0.80
2023-04-12T17:18:23.931Z,0.70
2023-04-12T17:20:50.708Z,0.80
2023-04-12T17:23:17.342Z,1.00
2023-04-12T17:25:44.305Z,0.70
2023-04-12T17:28:10.737Z,0.70
2023-04-12T17:30:37.270Z,0.80
2023-04-12T17:33:03.935Z,0.80
2023-04-12T17:35:30.494Z,0.70
2023-04-12T17:37:57.147Z,0.85
2023-04-12T17:40:23.598Z,0.75
2023-04-12T17:42:50.068Z,0.88
2023-04-12T17:45:18.473Z,0.93
2023-04-12T17:47:45.112Z,0.80
2023-04-12T17:50:11.734Z,1.00
2023-04-12T17:52:38.601Z,0.90
2023-04-12T17:55:05.767Z,0.73
2023-04-12T17:57:32.618Z,0.95
2023-04-12T17:59:59.070Z,0.90
2023-04-12T18:02:26.065Z,0.90
2023-04-12T18:04:52.644Z,0.80
2023-04-12T18:07:19.238Z,1.00
2023-04-12T18:09:45.887Z,1.00
2023-04-12T18:12:13.080Z,1.00
2023-04-12T18:14:40.979Z,0.98
2023-04-12T18:17:08.096Z,1.00
2023-04-12T18:19:34.560Z,1.00
2023-04-12T18:22:01.161Z,1.02
2023-04-12T18:24:27.707Z,1.10
2023-04-12T18:26:54.236Z,1.17
2023-04-12T18:29:20.925Z,1.10
2023-04-12T18:31:47.391Z,1.15
2023-04-12T18:34:14.121Z,1.10
2023-04-12T18:36:42.266Z,0.90
2023-04-12T18:39:08.892Z,1.10
2023-04-12T18:41:36.541Z,1.00
2023-04-12T18:44:03.102Z,1.10
2023-04-12T18:46:29.709Z,1.17
2023-04-12T18:48:56.901Z,0.95
2023-04-12T18:51:23.476Z,1.00
2023-04-12T18:53:50.611Z,0.90
2023-04-12T18:56:23.015Z,1.10
2023-04-12T18:58:55.611Z,0.90
2023-04-12T19:01:23.202Z,1.10
2023-04-12T19:03:49.855Z,0.85
2023-04-12T19:06:16.961Z,0.93
2023-04-12T19:08:43.476Z,0.88
2023-04-12T19:11:09.985Z,1.02
2023-04-12T19:13:38.226Z,1.10
2023-04-12T19:16:07.531Z,1.10
2023-04-12T19:18:36.014Z,1.00
2023-04-12T19:21:03.453Z,1.00
2023-04-12T19:23:30.938Z,0.93
2023-04-12T19:28:26.798Z,1.00
2023-04-12T19:30:53.513Z,1.02
2023-04-12T19:33:20.476Z,1.05
2023-04-12T19:35:47.546Z,1.00
2023-04-12T19:38:15.713Z,0.80
2023-04-12T19:40:42.582Z,1.00
2023-04-12T19:43:09.155Z,1.08
2023-04-12T19:45:35.983Z,1.00
2023-04-12T19:48:02.435Z,1.10
2023-04-12T19:50:30.876Z,1.10
2023-04-12T19:52:57.415Z,1.17
2023-04-12T19:55:23.928Z,1.00
2023-04-12T19:57:51.227Z,0.90
2023-04-12T20:02:47.990Z,1.20
2023-04-12T20:05:15.772Z,0.95
2023-04-12T20:07:44.102Z,1.08
2023-04-12T20:10:10.996Z,1.02
2023-04-12T20:12:40.284Z,1.00
2023-04-12T20:15:11.783Z,1.10
2023-04-12T20:17:42.015Z,1.15
2023-04-12T20:20:10.769Z,1.10
2023-04-12T20:22:37.798Z,1.20
2023-04-12T20:25:05.765Z,1.10
2023-04-12T20:27:32.935Z,1.20
2023-04-12T20:30:00.373Z,1.38
2023-04-12T20:34:53.170Z,1.00
2023-04-12T20:37:19.950Z,1.70
2023-04-12T20:39:46.369Z,1.02
2023-04-12T20:42:13.049Z,1.20
2023-04-12T20:44:39.529Z,1.20
2023-04-12T20:47:05.977Z,1.15
2023-04-12T20:49:32.411Z,1.40
2023-04-12T20:51:59.205Z,1.38
2023-04-12T20:54:26.414Z,1.23
2023-04-12T20:56:54.191Z,1.05
2023-04-12T20:59:23.971Z,1.15
2023-04-12T21:01:51.413Z,1.17
2023-04-12T21:04:18.136Z,1.10
2023-04-12T21:06:45.116Z,1.00
2023-04-12T21:09:11.543Z,1.17
2023-04-12T21:11:37.939Z,1.23
2023-04-12T21:14:04.767Z,1.13
2023-04-12T21:16:31.304Z,1.10
2023-04-12T21:18:59.232Z,1.10
2023-04-12T21:21:27.370Z,1.20
2023-04-12T21:23:53.842Z,1.10
2023-04-12T21:26:20.852Z,1.10
2023-04-12T21:28:47.381Z,1.00
2023-04-12T21:31:13.946Z,0.80
2023-04-12T21:33:40.643Z,1.10
2023-04-12T21:36:07.418Z,0.98
2023-04-12T21:38:34.176Z,1.00
2023-04-12T21:41:07.135Z,1.05
2023-04-12T21:43:33.749Z,0.90
2023-04-12T21:46:00.406Z,1.00
2023-04-12T21:48:26.970Z,1.00
2023-04-12T21:50:53.462Z,1.10
2023-04-12T21:53:19.935Z,0.80
2023-04-12T21:55:46.500Z,0.82
2023-04-12T21:58:12.984Z,0.90
2023-04-12T22:00:39.407Z,0.90
2023-04-12T22:03:05.982Z,1.10
2023-04-12T22:05:32.448Z,0.85
2023-04-12T22:07:59.537Z,0.80
2023-04-12T22:10:25.986Z,1.38
2023-04-12T22:12:54.066Z,1.13
2023-04-12T22:15:20.524Z,0.75
2023-04-12T22:17:47.038Z,0.90
2023-04-12T22:20:13.537Z,0.90
2023-04-12T22:22:40.583Z,1.05
2023-04-12T22:25:08.440Z,0.90
2023-04-12T22:27:35.185Z,1.00
2023-04-12T22:30:01.665Z,1.00
2023-04-12T22:32:28.278Z,1.00
2023-04-12T22:35:05.174Z,1.00
2023-04-12T22:37:35.240Z,0.82
2023-04-12T22:56:32.466Z,1.02
2023-04-12T22:58:58.884Z,0.90
2023-04-12T23:01:26.025Z,0.90
2023-04-12T23:03:52.724Z,1.10
2023-04-12T23:06:20.571Z,0.70
2023-04-12T23:08:49.549Z,0.75
2023-04-12T23:11:16.487Z,0.80
2023-04-12T23:13:42.945Z,0.80
2023-04-12T23:16:09.540Z,0.80
2023-04-12T23:18:36.021Z,0.90
2023-04-12T23:21:02.785Z,0.88
2023-04-12T23:23:29.668Z,0.80
2023-04-12T23:25:56.099Z,0.90
2023-04-12T23:28:24.354Z,0.93
2023-04-12T23:30:51.315Z,0.80
2023-04-12T23:33:18.548Z,0.80
2023-04-12T23:35:46.241Z,0.73
2023-04-12T23:38:22.979Z,0.80
2023-04-12T23:40:54.163Z,0.90
2023-04-12T23:43:21.534Z,1.00
2023-04-12T23:45:48.128Z,1.23
2023-04-12T23:48:15.307Z,1.20
2023-04-12T23:50:42.697Z,0.95
2023-04-12T23:53:09.271Z,0.90
2023-04-12T23:55:36.345Z,1.00
2023-04-12T23:58:02.769Z,1.20
